Fai una donazione per la manutenzione ed il rinnovamento della strumentazione meteorologica e per il sito che la ospita.


Webcam more information Webcam



altri nostri siti meteo:

Previsioni audio clicca per ascoltarePrevisioni audio

RISCHIO INCENDIRischio incendi

PomeziameteoSito sul meteo

MeteopomeziaSito sul meteo

Pomeziameteo DashboardSito sul meteo

Caput FrigorisSito sul meteo

BarcellonameteoSito sul meteo

MeteoipassiSito sul meteo

TortoretometeolidoSito sul meteo

CastelnuovovomanometeoSito sul meteo

MeteogonzagaSito sul meteo

MeteonetworkInvio dai a Meteonetwork

Weather UndergroundInvio dai a Weather Underground

Scarica App android ViterbometeoInvio dai a Weather Underground



Problemi di comunicazione, Vai direttamente al sito di Meteoalarm : www.meteoalarm.eu e controlla gli allarmi .

Report METAR

   
LIRV - Viterbo (it-Mil), Italy
Distanza dalla stazione: W 4 km
Dati ricevuti: 05-12-2022 10:55
Poche nuvole  
Poche nuvole  
   Vento: Sud 18.5 km/h
Vento: Sud 18.5 km/h
Temperatura: 14°C
P.to Rugiada: 12°C
Umidita: 88%
Barometro: 1020 hPa
Nuvole: Poche nuvole
Visibilita: oltre 10 km
dettagli cloud: Poche nuvole 609.6 m
LIRV 050955Z 19010KT 9999 FEW020 14/12 Q1020
LIQN - Rieti, Italy
Distanza dalla stazione: E 59 km
Dati ricevuti: 05-12-2022 10:50
Sereno  
Sereno  
   Vento: Variabile calma
Vento: Variabile calma
Temperatura: 14°C
P.to Rugiada: 8°C
Umidita: 67%
Barometro: 1021 hPa
Visibilita: oltre 10 km
dettagli cloud: Sereno
LIQN 050950Z /////KT CAVOK 14/08 Q1021
LIRU - Rome/Urbe (it-Af, Italy
Distanza dalla stazione: S 61 km
Dati ricevuti: 05-12-2022 10:50
Parzialmente nuvoloso  
Parzialmente nuvoloso  
   Vento: SE 7.4 km/h
Vento: SE 7.4 km/h
Temperatura: 16°C
P.to Rugiada: 11°C
Umidita: 72%
Barometro: 1021 hPa
Nuvole: Parzialmente nuvoloso
Visibilita: oltre 10 km
dettagli cloud: Parzialmente nuvoloso 914.4 m
LIRU 050950Z 14004KT 9999 SCT030 16/11 Q1021
LIRG - Guidonia (it-Afb, Italy
Distanza dalla stazione: SE 68 km
Dati ricevuti: 05-12-2022 10:55
Poche nuvole  
Poche nuvole  
   Vento: Sud 9.3 km/h
Vento: Sud 9.3 km/h
Temperatura: 16°C
P.to Rugiada: 10°C
Umidita: 68%
Barometro: 1021 hPa
Nuvole: Poche nuvole
Visibilita: oltre 10 km
dettagli cloud: Poche nuvole 1219.2 m
LIRG 050955Z 17005KT 9999 FEW040 16/10 Q1021
LIRK - Terminillo Mount, Italy
Distanza dalla stazione: E 70 km
Dati ricevuti: 05-12-2022 10:55
  
  
   Vento: Variabile calma
Vento: Variabile calma
LIRK 050955Z AUTO /////KT //// ///// Q////
 

Script sviluppato da  Saratoga-weather.org Adattato per il modello da  Weerstation Leuven

Strumentazione usata:

Stazione meteo
Davis VP2

Programma gestore dati meteo
WVIEW

Server per i dati meteo
WDS-5

Davis VP2

WVIEW

WDS-5